This is the latest recevied weather packets stored in our database for station/object DD8XX-10. If no packets are shown the sender has not sent any weather packets the latest 1 day(s).
| Time | Temp. | Humidity | Pressure | Rain* | Wind** | Luminosity | Snow |
|---|---|---|---|---|---|---|---|
| 1778115497 | 8.89° C | 95% | 1017.4 hPa | - | - | - | - |
| 1778114597 | 8.89° C | 94% | 1017.7 hPa | - | - | - | - |
| 1778113697 | 8.89° C | 95% | 1017.6 hPa | - | - | - | - |
| 1778113693 | 8.89° C | 95% | 1017.6 hPa | - | - | - | - |
| 1778112797 | 8.89° C | 96% | 1017.5 hPa | - | - | - | - |
| 1778112793 | 8.89° C | 96% | 1017.5 hPa | - | - | - | - |
| 1778110997 | 8.89° C | 95% | 1017.6 hPa | - | - | - | - |
| 1778110097 | 9.44° C | 94% | 1017.5 hPa | - | - | - | - |
| 1778109193 | 9.44° C | 94% | 1017.5 hPa | - | - | - | - |
| 1778103796 | 9.44° C | 96% | 1017 hPa | - | - | - | - |
| 1778103792 | 9.44° C | 96% | 1017 hPa | - | - | - | - |
| 1778102896 | 10° C | 90% | 1017.1 hPa | - | - | - | - |
| 1778102892 | 10° C | 90% | 1017.1 hPa | - | - | - | - |
| 1778101992 | 9.44° C | 93% | 1017 hPa | - | - | - | - |
| 1778096595 | 10° C | 90% | 1016.4 hPa | - | - | - | - |
| 1778096591 | 10° C | 90% | 1016.4 hPa | - | - | - | - |
| 1778095691 | 11.11° C | 81% | 1016.3 hPa | - | - | - | - |
| 1778094791 | 11.11° C | 80% | 1015.9 hPa | - | - | - | - |
| 1778089390 | 11.67° C | 67% | 1014 hPa | - | - | - | - |
| 1778088490 | 12.22° C | 70% | 1013.6 hPa | - | - | - | - |
| 1778087590 | 12.22° C | 67% | 1013.2 hPa | - | - | - | - |
| 1778086690 | 13.89° C | 62% | 1012.8 hPa | - | - | - | - |
| 1778081289 | 15.56° C | 64% | 1012.2 hPa | - | - | - | - |
| 1778080389 | 15° C | 66% | 1012.2 hPa | - | - | - | - |
| 1778079489 | 14.44° C | 72% | 1012.2 hPa | - | - | - | - |
* Rain since midnight (hover to see other rain measurements)
** Current wind speed in m/s (hover to see current wind gust speed)